createdAt,value
2019-05-18T00:00:44.703Z,3.67
2019-05-18T00:03:15.198Z,3.50
2019-05-18T00:05:45.891Z,3.40
2019-05-18T00:08:16.674Z,5.27
2019-05-18T00:10:48.376Z,4.90
2019-05-18T00:13:18.933Z,6.40
2019-05-18T00:15:49.382Z,5.40
2019-05-18T00:18:19.855Z,7.07
2019-05-18T00:20:50.352Z,4.33
2019-05-18T00:23:20.862Z,3.77
2019-05-18T00:25:51.490Z,3.23
2019-05-18T00:28:22.399Z,3.30
2019-05-18T00:30:52.887Z,2.90
2019-05-18T00:33:23.436Z,5.47
2019-05-18T00:35:53.943Z,4.17
2019-05-18T00:38:24.603Z,7.17
2019-05-18T00:40:55.076Z,8.60
2019-05-18T00:43:25.838Z,9.43
2019-05-18T00:45:56.375Z,8.70
2019-05-18T00:48:26.874Z,5.53
2019-05-18T00:50:57.401Z,6.27
2019-05-18T00:53:27.952Z,4.37
2019-05-18T00:55:58.450Z,4.77
2019-05-18T00:58:29.133Z,4.53
2019-05-18T01:00:59.596Z,3.97
2019-05-18T01:03:30.151Z,4.37
2019-05-18T01:06:00.616Z,3.60
2019-05-18T01:08:31.208Z,4.30
2019-05-18T01:11:01.692Z,5.27
2019-05-18T01:13:32.250Z,5.47
2019-05-18T01:16:02.720Z,8.63
2019-05-18T01:18:33.191Z,6.80
2019-05-18T01:21:03.710Z,4.47
2019-05-18T01:23:34.236Z,4.83
2019-05-18T01:26:04.775Z,4.40
2019-05-18T01:28:35.212Z,4.00
2019-05-18T01:31:06.049Z,3.77
2019-05-18T01:33:36.566Z,3.90
2019-05-18T01:36:07.019Z,6.67
2019-05-18T01:38:37.505Z,9.30
2019-05-18T01:41:08.089Z,6.43
2019-05-18T01:43:38.565Z,5.63
2019-05-18T01:46:10.458Z,6.20
2019-05-18T01:48:41.156Z,4.63
2019-05-18T01:51:12.800Z,2.80
2019-05-18T01:53:43.350Z,3.37
2019-05-18T01:56:13.880Z,5.43
2019-05-18T01:58:44.372Z,6.40
2019-05-18T02:01:16.145Z,7.90
2019-05-18T02:03:46.635Z,8.47
2019-05-18T02:06:17.132Z,7.50
2019-05-18T02:08:47.691Z,7.30
2019-05-18T02:11:18.245Z,7.27
2019-05-18T02:13:48.716Z,6.70
2019-05-18T02:16:19.325Z,6.87
2019-05-18T02:18:53.095Z,6.60
2019-05-18T02:21:23.555Z,6.60
2019-05-18T02:23:53.999Z,6.03
2019-05-18T02:26:24.454Z,5.70
2019-05-18T02:28:54.911Z,6.00
2019-05-18T02:31:25.416Z,5.87
2019-05-18T02:33:55.883Z,5.63
2019-05-18T02:36:26.380Z,5.60
2019-05-18T02:38:56.809Z,5.97
2019-05-18T02:41:27.303Z,5.50
2019-05-18T02:43:57.731Z,6.10
2019-05-18T02:46:28.208Z,6.00
2019-05-18T02:48:59.013Z,3.80
2019-05-18T02:51:29.614Z,3.30
2019-05-18T02:54:00.198Z,3.17
2019-05-18T02:56:30.807Z,4.37
2019-05-18T02:59:01.465Z,3.60
2019-05-18T03:01:32.047Z,3.80
2019-05-18T03:04:02.553Z,4.87
2019-05-18T03:06:33.020Z,5.77
2019-05-18T03:09:05.391Z,5.90
2019-05-18T03:11:36.608Z,7.60
2019-05-18T03:14:07.152Z,8.53
2019-05-18T03:16:37.655Z,5.63
2019-05-18T03:19:09.260Z,5.87
2019-05-18T03:21:39.926Z,7.07
2019-05-18T03:24:10.507Z,7.13
2019-05-18T03:26:41.480Z,6.80
2019-05-18T03:29:11.932Z,7.87
2019-05-18T03:31:42.583Z,7.90
2019-05-18T03:34:13.033Z,5.63
2019-05-18T03:36:43.513Z,5.13
2019-05-18T03:39:14.246Z,3.77
2019-05-18T03:41:44.732Z,3.83
2019-05-18T03:44:15.315Z,3.40
2019-05-18T03:46:45.778Z,3.60
2019-05-18T03:49:26.128Z,3.57
2019-05-18T03:51:48.589Z,4.10
2019-05-18T03:54:19.019Z,6.63
2019-05-18T03:56:49.498Z,4.80
2019-05-18T03:59:19.984Z,5.37
2019-05-18T04:01:50.638Z,7.23
2019-05-18T04:04:21.070Z,6.50
2019-05-18T04:06:51.532Z,9.37
2019-05-18T04:09:22.086Z,9.20
2019-05-18T04:11:52.711Z,5.83
2019-05-18T04:14:24.556Z,4.60
2019-05-18T04:16:57.776Z,4.17
2019-05-18T04:19:44.726Z,3.80
2019-05-18T04:22:00.946Z,5.17
2019-05-18T04:24:31.544Z,4.57
2019-05-18T04:27:02.196Z,4.43
2019-05-18T04:29:32.691Z,4.67
2019-05-18T04:32:03.503Z,4.63
2019-05-18T04:34:33.975Z,4.60
2019-05-18T04:37:04.517Z,5.20
2019-05-18T04:39:34.989Z,6.00
2019-05-18T04:42:05.471Z,8.70
2019-05-18T04:44:35.949Z,10.73
2019-05-18T04:47:06.858Z,11.13
2019-05-18T04:49:37.748Z,12.83
2019-05-18T04:52:08.415Z,11.80
2019-05-18T04:54:39.477Z,12.77
2019-05-18T04:57:10.188Z,12.93
2019-05-18T04:59:40.692Z,15.40
2019-05-18T05:02:11.256Z,15.87
2019-05-18T05:04:41.703Z,15.93
2019-05-18T05:07:12.295Z,12.40
2019-05-18T05:09:42.798Z,10.07
2019-05-18T05:12:13.282Z,9.67
2019-05-18T05:14:43.796Z,7.57
2019-05-18T05:17:14.318Z,7.27
2019-05-18T05:19:47.064Z,7.63
2019-05-18T05:22:17.716Z,9.53
2019-05-18T05:24:48.256Z,10.13
2019-05-18T05:27:18.800Z,6.33
2019-05-18T05:29:49.680Z,5.40
2019-05-18T05:32:21.800Z,6.60
2019-05-18T05:34:52.537Z,4.77
2019-05-18T05:37:24.115Z,4.10
2019-05-18T05:39:54.908Z,5.60
2019-05-18T05:42:25.396Z,4.57
2019-05-18T05:44:55.879Z,5.47
2019-05-18T05:47:26.806Z,4.73
2019-05-18T05:49:57.424Z,3.90
2019-05-18T05:52:27.882Z,4.53
2019-05-18T05:54:58.478Z,5.83
2019-05-18T05:57:28.974Z,5.17
2019-05-18T05:59:59.512Z,5.43
2019-05-18T06:02:31.191Z,6.17
2019-05-18T06:05:03.332Z,7.47
2019-05-18T06:07:33.922Z,8.77
2019-05-18T06:10:04.770Z,8.00
2019-05-18T06:12:35.283Z,8.00
2019-05-18T06:15:06.216Z,8.90
2019-05-18T06:17:36.707Z,11.60
2019-05-18T06:20:10.535Z,13.27
2019-05-18T06:22:41.376Z,15.87
2019-05-18T06:25:12.325Z,14.80
2019-05-18T06:27:44.692Z,17.73
2019-05-18T06:30:15.599Z,10.57
2019-05-18T06:32:46.159Z,8.93
2019-05-18T06:35:17.978Z,6.83
2019-05-18T06:37:48.564Z,7.90
2019-05-18T06:40:19.112Z,7.40
2019-05-18T06:42:49.712Z,6.50
2019-05-18T06:45:20.518Z,6.73
2019-05-18T06:47:51.037Z,6.27
2019-05-18T06:50:29.829Z,6.70
2019-05-18T06:53:01.742Z,6.97
2019-05-18T06:55:33.784Z,6.20
2019-05-18T06:58:04.710Z,6.27
2019-05-18T07:00:47.526Z,6.40
2019-05-18T07:03:18.030Z,5.93
2019-05-18T07:05:48.600Z,6.30
2019-05-18T07:08:19.265Z,6.10
2019-05-18T07:10:49.896Z,5.50
2019-05-18T07:13:20.491Z,6.30
2019-05-18T07:15:51.380Z,5.77
2019-05-18T07:18:21.916Z,6.70
2019-05-18T07:20:52.947Z,7.07
2019-05-18T07:23:23.415Z,6.50
2019-05-18T07:25:53.921Z,6.00
2019-05-18T07:28:24.400Z,9.23
2019-05-18T07:30:54.878Z,5.60
2019-05-18T07:33:25.380Z,5.83
2019-05-18T07:35:55.845Z,8.20
2019-05-18T07:38:26.389Z,6.20
2019-05-18T07:40:56.897Z,5.80
2019-05-18T07:43:27.423Z,6.23
2019-05-18T07:45:57.931Z,5.87
2019-05-18T07:48:28.422Z,6.67
2019-05-18T07:50:59.001Z,5.07
2019-05-18T07:53:29.611Z,5.37
2019-05-18T07:56:00.089Z,4.93
2019-05-18T07:58:31.799Z,6.83
2019-05-18T08:01:03.145Z,8.57
2019-05-18T08:03:33.710Z,5.80
2019-05-18T08:06:04.217Z,5.13
2019-05-18T08:08:34.724Z,4.67
2019-05-18T08:11:05.226Z,4.97
2019-05-18T08:13:35.753Z,5.03
2019-05-18T08:16:06.337Z,4.67
2019-05-18T08:18:36.834Z,5.67
2019-05-18T08:21:07.361Z,8.73
2019-05-18T08:23:37.945Z,8.67
2019-05-18T08:26:08.791Z,6.87
2019-05-18T08:28:41.055Z,5.07
2019-05-18T08:31:12.997Z,5.57
2019-05-18T08:33:43.569Z,6.60
2019-05-18T08:36:14.076Z,4.27
2019-05-18T08:38:46.632Z,4.07
2019-05-18T08:41:17.331Z,5.63
2019-05-18T08:43:47.780Z,4.70
2019-05-18T08:46:20.495Z,4.03
2019-05-18T08:48:51.087Z,7.53
2019-05-18T08:51:21.699Z,4.20
2019-05-18T08:53:52.246Z,4.00
2019-05-18T08:56:22.864Z,4.90
2019-05-18T08:58:53.632Z,4.57
2019-05-18T09:01:24.287Z,3.97
2019-05-18T09:03:54.838Z,4.63
2019-05-18T09:06:25.375Z,3.97
2019-05-18T09:08:56.003Z,4.03
2019-05-18T09:11:42.107Z,4.07
2019-05-18T09:14:13.238Z,3.73
2019-05-18T09:16:43.742Z,5.10
2019-05-18T09:19:14.630Z,4.10
2019-05-18T09:21:45.165Z,4.90
2019-05-18T09:24:15.677Z,4.90
2019-05-18T09:26:46.338Z,4.20
2019-05-18T09:29:16.955Z,4.33
2019-05-18T09:31:48.222Z,4.40
2019-05-18T09:34:19.081Z,4.30
2019-05-18T09:36:49.665Z,4.00
2019-05-18T09:39:28.856Z,4.00
2019-05-18T09:42:01.884Z,6.80
2019-05-18T09:44:34.656Z,3.77
2019-05-18T09:47:05.265Z,6.03
2019-05-18T09:49:35.746Z,12.10
2019-05-18T09:52:06.401Z,6.57
2019-05-18T09:54:36.981Z,5.10
2019-05-18T09:57:07.442Z,4.00
2019-05-18T09:59:37.972Z,5.17
2019-05-18T10:02:08.605Z,4.40
2019-05-18T10:04:39.316Z,4.63
2019-05-18T10:07:12.603Z,4.70
2019-05-18T10:09:43.131Z,4.53
2019-05-18T10:12:13.614Z,4.83
2019-05-18T10:14:44.200Z,4.50
2019-05-18T10:17:14.753Z,4.30
2019-05-18T10:19:45.322Z,4.27
2019-05-18T10:22:15.810Z,3.80
2019-05-18T10:24:46.332Z,4.00
2019-05-18T10:27:17.284Z,4.17
2019-05-18T10:29:49.555Z,4.77
2019-05-18T10:32:20.460Z,4.93
2019-05-18T10:34:51.140Z,3.67
2019-05-18T10:37:22.774Z,7.23
2019-05-18T10:39:57.196Z,3.47
2019-05-18T10:42:27.696Z,3.60
2019-05-18T10:44:58.876Z,5.13
2019-05-18T10:47:29.322Z,3.00
2019-05-18T10:50:00.264Z,2.70
2019-05-18T10:52:31.134Z,3.07
2019-05-18T10:55:01.810Z,3.00
2019-05-18T10:57:33.772Z,2.40
2019-05-18T11:00:05.125Z,2.27
2019-05-18T11:02:35.655Z,3.30
2019-05-18T11:05:07.599Z,2.47
2019-05-18T11:07:38.320Z,3.40
2019-05-18T11:10:10.454Z,3.53
2019-05-18T11:12:41.128Z,3.17
2019-05-18T11:15:14.676Z,3.33
2019-05-18T11:17:45.149Z,3.37
2019-05-18T11:20:16.555Z,4.53
2019-05-18T11:22:47.158Z,4.70
2019-05-18T11:25:18.263Z,3.07
2019-05-18T11:27:48.931Z,4.73
2019-05-18T11:30:21.054Z,3.93
2019-05-18T11:32:51.633Z,2.20
2019-05-18T11:35:27.487Z,3.20
2019-05-18T11:37:58.012Z,2.43
2019-05-18T11:40:29.007Z,2.77
2019-05-18T11:43:00.738Z,5.73
2019-05-18T11:45:34.091Z,2.57
2019-05-18T11:48:04.710Z,3.30
2019-05-18T11:50:35.169Z,3.83
2019-05-18T11:53:05.729Z,2.93
2019-05-18T11:55:36.181Z,2.43
2019-05-18T11:58:06.714Z,3.53
2019-05-18T12:00:37.250Z,2.30
2019-05-18T12:03:09.185Z,2.67
2019-05-18T12:05:39.616Z,2.33
2019-05-18T12:08:10.343Z,2.17
2019-05-18T12:10:41.070Z,1.80
2019-05-18T12:13:11.543Z,4.23
2019-05-18T12:15:42.182Z,2.47
2019-05-18T12:18:13.178Z,1.60
2019-05-18T12:20:43.948Z,1.37
2019-05-18T12:23:14.421Z,2.93
2019-05-18T12:25:45.144Z,1.20
2019-05-18T12:28:15.683Z,1.43
2019-05-18T12:30:46.735Z,1.47
2019-05-18T12:33:17.219Z,1.07
2019-05-18T12:35:48.156Z,3.80
2019-05-18T12:38:20.742Z,1.57
2019-05-18T12:40:51.371Z,1.10
2019-05-18T12:43:21.976Z,1.10
2019-05-18T12:45:52.867Z,0.90
2019-05-18T12:48:24.571Z,10.23
2019-05-18T12:50:55.177Z,1.07
2019-05-18T12:53:26.118Z,2.13
2019-05-18T12:55:56.655Z,2.10
2019-05-18T12:58:27.163Z,3.10
2019-05-18T13:00:57.687Z,0.87
2019-05-18T13:03:28.404Z,3.90
2019-05-18T13:05:58.979Z,0.57
2019-05-18T13:08:29.831Z,0.70
2019-05-18T13:11:00.326Z,0.90
2019-05-18T13:13:30.849Z,0.50
2019-05-18T13:16:01.416Z,0.63
2019-05-18T13:18:32.033Z,0.70
2019-05-18T13:21:03.211Z,0.47
2019-05-18T13:23:34.137Z,0.60
2019-05-18T13:26:06.697Z,0.70
2019-05-18T13:28:37.201Z,0.57
2019-05-18T13:31:07.714Z,0.57
2019-05-18T13:33:39.835Z,1.60
2019-05-18T13:36:10.423Z,0.60
2019-05-18T13:38:40.989Z,0.70
2019-05-18T13:41:11.807Z,0.47
2019-05-18T13:43:42.483Z,0.60
2019-05-18T13:46:16.008Z,0.70
2019-05-18T13:48:46.668Z,1.33
2019-05-18T13:51:17.166Z,0.63
2019-05-18T13:53:47.817Z,1.13
2019-05-18T13:56:18.469Z,0.83
2019-05-18T13:58:49.377Z,2.30
2019-05-18T14:01:20.147Z,1.40
2019-05-18T14:03:50.735Z,0.70
2019-05-18T14:06:21.320Z,0.63
2019-05-18T14:08:53.863Z,0.57
2019-05-18T14:11:24.507Z,1.23
2019-05-18T14:13:55.062Z,1.47
2019-05-18T14:16:25.543Z,0.67
2019-05-18T14:18:56.083Z,0.40
2019-05-18T14:21:26.629Z,0.60
2019-05-18T14:23:57.564Z,4.03
2019-05-18T14:26:28.378Z,0.70
2019-05-18T14:28:58.944Z,1.00
2019-05-18T14:31:29.475Z,0.80
2019-05-18T14:34:00.107Z,0.83
2019-05-18T14:36:32.921Z,2.60
2019-05-18T14:39:04.577Z,0.80
2019-05-18T14:41:35.080Z,0.70
2019-05-18T14:44:05.774Z,1.93
2019-05-18T14:46:36.308Z,0.80
2019-05-18T14:49:06.827Z,0.70
2019-05-18T14:51:38.251Z,0.80
2019-05-18T14:54:08.782Z,0.77
2019-05-18T14:56:39.306Z,0.97
2019-05-18T14:59:10.006Z,1.03
2019-05-18T15:01:40.616Z,0.50
2019-05-18T15:04:11.137Z,2.23
2019-05-18T15:06:41.736Z,0.70
2019-05-18T15:09:12.346Z,1.23
2019-05-18T15:11:42.957Z,1.60
2019-05-18T15:14:15.128Z,1.30
2019-05-18T15:16:45.714Z,0.87
2019-05-18T15:19:16.352Z,2.53
2019-05-18T15:21:47.252Z,0.90
2019-05-18T15:24:19.440Z,0.70
2019-05-18T15:26:51.435Z,3.73
2019-05-18T15:29:22.001Z,0.70
2019-05-18T15:31:54.765Z,0.73
2019-05-18T15:34:26.190Z,0.80
2019-05-18T15:36:56.670Z,0.50
2019-05-18T15:39:35.506Z,2.13
2019-05-18T15:42:06.576Z,0.87
2019-05-18T15:44:37.905Z,5.13
2019-05-18T15:47:08.688Z,1.03
2019-05-18T15:49:39.819Z,2.53
2019-05-18T15:52:10.547Z,0.70
2019-05-18T15:54:41.371Z,0.63
2019-05-18T15:57:12.643Z,0.77
2019-05-18T15:59:43.644Z,1.23
2019-05-18T16:02:15.298Z,0.85
2019-05-18T16:04:45.867Z,2.30
2019-05-18T16:07:16.566Z,1.37
2019-05-18T16:09:56.511Z,1.37
2019-05-18T16:12:29.184Z,0.87
2019-05-18T16:14:59.678Z,1.30
2019-05-18T16:17:39.260Z,3.27
2019-05-18T16:20:06.420Z,2.90
2019-05-18T16:22:36.986Z,0.60
2019-05-18T16:25:08.723Z,1.17
2019-05-18T16:27:49.815Z,2.13
2019-05-18T16:30:23.778Z,3.10
2019-05-18T16:33:03.678Z,1.63
2019-05-18T16:35:34.201Z,0.80
2019-05-18T16:38:04.679Z,0.70
2019-05-18T16:40:35.296Z,1.87
2019-05-18T16:43:07.272Z,1.00
2019-05-18T16:45:37.785Z,1.60
2019-05-18T16:48:08.250Z,1.77
2019-05-18T16:50:38.905Z,1.47
2019-05-18T16:53:10.289Z,1.10
2019-05-18T16:55:42.955Z,0.93
2019-05-18T16:58:13.477Z,2.00
2019-05-18T17:00:43.979Z,1.10
2019-05-18T17:03:14.499Z,2.87
2019-05-18T17:05:45.111Z,0.87
2019-05-18T17:08:15.900Z,0.83
2019-05-18T17:10:46.632Z,1.83
2019-05-18T17:13:17.180Z,1.10
2019-05-18T17:15:47.886Z,1.37
2019-05-18T17:18:18.395Z,1.40
2019-05-18T17:20:48.930Z,1.93
2019-05-18T17:23:19.411Z,1.57
2019-05-18T17:25:49.900Z,2.07
2019-05-18T17:28:20.363Z,1.50
2019-05-18T17:30:52.145Z,1.10
2019-05-18T17:33:24.073Z,1.23
2019-05-18T17:36:00.348Z,1.17
2019-05-18T17:38:26.930Z,1.27
2019-05-18T17:40:57.947Z,1.80
2019-05-18T17:43:28.846Z,4.80
2019-05-18T17:45:59.498Z,2.67
2019-05-18T17:48:30.630Z,1.23
2019-05-18T17:51:01.325Z,1.57
2019-05-18T17:53:32.030Z,2.00
2019-05-18T17:56:03.910Z,2.37
2019-05-18T17:58:41.496Z,1.27
2019-05-18T18:01:16.471Z,1.20
2019-05-18T18:03:46.969Z,1.30
2019-05-18T18:06:17.473Z,1.83
2019-05-18T18:08:48.638Z,2.57
2019-05-18T18:11:20.941Z,1.10
2019-05-18T18:13:53.215Z,1.50
2019-05-18T18:16:23.949Z,2.60
2019-05-18T18:18:54.482Z,1.10
2019-05-18T18:21:25.814Z,0.80
2019-05-18T18:23:58.617Z,1.07
2019-05-18T18:26:30.157Z,1.40
2019-05-18T18:29:00.705Z,3.43
2019-05-18T18:31:31.510Z,1.30
2019-05-18T18:34:03.507Z,1.87
2019-05-18T18:36:34.086Z,2.20
2019-05-18T18:39:07.297Z,1.73
2019-05-18T18:41:37.909Z,1.50
2019-05-18T18:44:08.501Z,1.23
2019-05-18T18:46:39.428Z,1.40
2019-05-18T18:49:10.398Z,2.20
2019-05-18T18:51:42.812Z,2.50
2019-05-18T18:54:13.559Z,1.43
2019-05-18T18:56:44.251Z,2.03
2019-05-18T18:59:15.213Z,2.63
2019-05-18T19:01:46.866Z,3.37
2019-05-18T19:04:19.249Z,3.93
2019-05-18T19:06:57.517Z,2.33
2019-05-18T19:09:30.704Z,1.63
2019-05-18T19:12:01.048Z,1.70
2019-05-18T19:14:33.364Z,1.97
2019-05-18T19:17:12.736Z,2.17
2019-05-18T19:19:48.895Z,2.30
2019-05-18T19:22:19.565Z,7.17
2019-05-18T19:24:50.581Z,2.80
2019-05-18T19:27:21.485Z,3.90
2019-05-18T19:29:52.635Z,2.17
2019-05-18T19:32:25.895Z,1.70
2019-05-18T19:35:12.418Z,4.00
2019-05-18T19:37:43.146Z,4.10
2019-05-18T19:40:15.319Z,1.87
2019-05-18T19:42:53.640Z,1.93
2019-05-18T19:45:29.309Z,2.93
2019-05-18T19:48:03.249Z,4.23
2019-05-18T19:50:37.296Z,6.93
2019-05-18T19:53:08.247Z,2.73
2019-05-18T19:55:47.789Z,2.30
2019-05-18T19:58:18.589Z,3.30
2019-05-18T20:00:52.839Z,1.70
2019-05-18T20:03:24.035Z,2.27
2019-05-18T20:05:59.057Z,2.00
2019-05-18T20:08:30.180Z,4.40
2019-05-18T20:11:09.324Z,3.10
2019-05-18T20:13:54.947Z,2.97
2019-05-18T20:16:26.547Z,2.60
2019-05-18T20:18:57.272Z,4.17
2019-05-18T20:21:28.899Z,2.50
2019-05-18T20:24:02.592Z,3.97
2019-05-18T20:26:51.018Z,6.90
2019-05-18T20:29:28.068Z,2.60
2019-05-18T20:31:58.956Z,4.30
2019-05-18T20:34:29.670Z,4.90
2019-05-18T20:37:00.316Z,4.33
2019-05-18T20:39:31.196Z,4.47
2019-05-18T20:42:04.182Z,4.30
2019-05-18T20:44:36.017Z,5.73
2019-05-18T20:47:16.574Z,3.03
2019-05-18T20:49:51.821Z,3.37
2019-05-18T20:52:24.005Z,3.03
2019-05-18T20:54:54.764Z,3.03
2019-05-18T20:57:25.766Z,4.13
2019-05-18T20:59:58.326Z,4.30
2019-05-18T21:02:29.126Z,3.17
2019-05-18T21:05:02.853Z,3.23
2019-05-18T21:07:35.620Z,4.77
2019-05-18T21:10:07.146Z,3.80
2019-05-18T21:12:39.693Z,3.27
2019-05-18T21:15:11.282Z,2.90
2019-05-18T21:17:42.283Z,4.67
2019-05-18T21:20:13.252Z,4.13
2019-05-18T21:22:45.251Z,4.50
2019-05-18T21:25:18.172Z,4.97
2019-05-18T21:27:51.510Z,4.30
2019-05-18T21:30:22.209Z,5.37
2019-05-18T21:32:52.824Z,4.13
2019-05-18T21:35:25.166Z,4.03
2019-05-18T21:37:55.740Z,10.00
2019-05-18T21:40:26.867Z,4.60
2019-05-18T21:42:58.503Z,4.60
2019-05-18T21:45:28.998Z,5.10
2019-05-18T21:47:59.629Z,4.67
2019-05-18T21:50:30.162Z,4.77
2019-05-18T21:53:03.746Z,5.70
2019-05-18T21:55:34.252Z,8.17
2019-05-18T21:58:04.753Z,5.00
2019-05-18T22:00:35.375Z,4.63
2019-05-18T22:03:05.897Z,4.40
2019-05-18T22:05:36.520Z,5.80
2019-05-18T22:08:07.009Z,7.00
2019-05-18T22:10:37.507Z,6.07
2019-05-18T22:13:08.005Z,5.53
2019-05-18T22:15:38.514Z,4.90
2019-05-18T22:18:23.283Z,5.90
2019-05-18T22:20:44.342Z,5.60
2019-05-18T22:23:14.965Z,5.90
2019-05-18T22:25:45.497Z,5.23
2019-05-18T22:28:15.951Z,5.07
2019-05-18T22:30:46.477Z,5.20
2019-05-18T22:33:17.009Z,6.50
2019-05-18T22:35:47.550Z,5.30
2019-05-18T22:38:18.032Z,5.80
2019-05-18T22:40:48.535Z,7.47
2019-05-18T22:43:19.023Z,4.87
2019-05-18T22:45:51.613Z,5.70
2019-05-18T22:48:22.076Z,5.50
2019-05-18T22:50:52.603Z,4.43
2019-05-18T22:53:23.082Z,4.30
2019-05-18T22:55:53.889Z,5.50
2019-05-18T22:58:24.437Z,3.90
2019-05-18T23:00:54.909Z,4.70
2019-05-18T23:03:25.496Z,4.77
2019-05-18T23:05:56.017Z,6.27
2019-05-18T23:08:26.648Z,4.63
2019-05-18T23:10:57.117Z,5.43
2019-05-18T23:13:27.599Z,5.63
2019-05-18T23:15:58.056Z,6.60
2019-05-18T23:18:30.803Z,8.07
2019-05-18T23:21:02.995Z,7.43
2019-05-18T23:23:33.519Z,5.40
2019-05-18T23:26:04.084Z,9.43
2019-05-18T23:28:34.520Z,8.10
2019-05-18T23:31:05.109Z,8.00
2019-05-18T23:33:35.598Z,6.57
2019-05-18T23:36:06.082Z,7.07
2019-05-18T23:38:36.349Z,6.13
2019-05-18T23:41:06.939Z,5.83
2019-05-18T23:43:37.396Z,5.77
2019-05-18T23:46:07.903Z,6.83
2019-05-18T23:48:38.352Z,6.50
2019-05-18T23:51:08.863Z,7.33
2019-05-18T23:53:39.342Z,6.47
2019-05-18T23:56:10.948Z,6.47
2019-05-18T23:58:41.717Z,5.50
